sensor_id;sensor_type;location;lat;lon;timestamp;P1;durP1;ratioP1;P2;durP2;ratioP2
20314;SDS011;10315;50.958;13.080;2022-07-29T00:00:12;4.23;;;1.43;;
20314;SDS011;10315;50.958;13.080;2022-07-29T00:10:26;14.17;;;1.90;;
20314;SDS011;10315;50.958;13.080;2022-07-29T00:20:48;4.97;;;1.80;;
20314;SDS011;10315;50.958;13.080;2022-07-29T00:30:51;5.13;;;2.10;;
20314;SDS011;10315;50.958;13.080;2022-07-29T00:41:08;5.60;;;1.90;;
20314;SDS011;10315;50.958;13.080;2022-07-29T00:51:11;4.27;;;1.67;;
20314;SDS011;10315;50.958;13.080;2022-07-29T01:01:28;5.40;;;1.80;;
20314;SDS011;10315;50.958;13.080;2022-07-29T01:11:41;5.80;;;2.13;;
20314;SDS011;10315;50.958;13.080;2022-07-29T01:21:50;8.67;;;2.60;;
20314;SDS011;10315;50.958;13.080;2022-07-29T01:32:01;8.87;;;3.67;;
20314;SDS011;10315;50.958;13.080;2022-07-29T01:42:15;25.10;;;12.57;;
20314;SDS011;10315;50.958;13.080;2022-07-29T01:52:31;15.90;;;8.90;;
20314;SDS011;10315;50.958;13.080;2022-07-29T02:02:45;10.37;;;3.90;;
20314;SDS011;10315;50.958;13.080;2022-07-29T02:12:50;15.73;;;8.33;;
20314;SDS011;10315;50.958;13.080;2022-07-29T02:22:58;18.87;;;12.60;;
20314;SDS011;10315;50.958;13.080;2022-07-29T02:33:08;23.17;;;12.00;;
20314;SDS011;10315;50.958;13.080;2022-07-29T02:43:28;23.13;;;13.27;;
20314;SDS011;10315;50.958;13.080;2022-07-29T02:53:51;22.60;;;12.57;;
20314;SDS011;10315;50.958;13.080;2022-07-29T03:04:05;30.23;;;15.90;;
20314;SDS011;10315;50.958;13.080;2022-07-29T03:14:13;29.40;;;14.30;;
20314;SDS011;10315;50.958;13.080;2022-07-29T03:24:35;28.57;;;14.10;;
20314;SDS011;10315;50.958;13.080;2022-07-29T03:34:45;25.67;;;13.90;;
20314;SDS011;10315;50.958;13.080;2022-07-29T03:44:58;19.67;;;12.53;;
20314;SDS011;10315;50.958;13.080;2022-07-29T04:05:34;26.93;;;12.57;;
20314;SDS011;10315;50.958;13.080;2022-07-29T04:15:46;24.60;;;11.30;;
20314;SDS011;10315;50.958;13.080;2022-07-29T04:25:52;18.23;;;10.40;;
20314;SDS011;10315;50.958;13.080;2022-07-29T04:35:56;31.15;;;14.20;;
20314;SDS011;10315;50.958;13.080;2022-07-29T04:46:01;25.17;;;14.70;;
20314;SDS011;10315;50.958;13.080;2022-07-29T04:56:09;24.63;;;13.95;;
20314;SDS011;10315;50.958;13.080;2022-07-29T05:06:11;24.48;;;12.27;;
20314;SDS011;10315;50.958;13.080;2022-07-29T05:16:27;20.38;;;9.77;;
20314;SDS011;10315;50.958;13.080;2022-07-29T05:26:32;20.80;;;8.85;;
20314;SDS011;10315;50.958;13.080;2022-07-29T05:36:41;13.13;;;8.00;;
20314;SDS011;10315;50.958;13.080;2022-07-29T05:46:44;18.42;;;8.30;;
20314;SDS011;10315;50.958;13.080;2022-07-29T05:56:55;16.13;;;7.53;;
20314;SDS011;10315;50.958;13.080;2022-07-29T06:07:20;19.30;;;9.02;;
20314;SDS011;10315;50.958;13.080;2022-07-29T06:17:40;15.45;;;7.82;;
20314;SDS011;10315;50.958;13.080;2022-07-29T06:27:44;16.55;;;7.78;;
20314;SDS011;10315;50.958;13.080;2022-07-29T06:37:55;16.38;;;7.65;;
20314;SDS011;10315;50.958;13.080;2022-07-29T06:48:21;12.98;;;6.80;;
20314;SDS011;10315;50.958;13.080;2022-07-29T06:58:34;12.25;;;6.65;;
20314;SDS011;10315;50.958;13.080;2022-07-29T07:08:42;13.63;;;6.05;;
20314;SDS011;10315;50.958;13.080;2022-07-29T07:29:43;12.57;;;7.35;;
20314;SDS011;10315;50.958;13.080;2022-07-29T07:39:55;18.15;;;9.05;;
20314;SDS011;10315;50.958;13.080;2022-07-29T07:50:07;17.17;;;7.57;;
20314;SDS011;10315;50.958;13.080;2022-07-29T08:00:18;16.25;;;7.32;;
20314;SDS011;10315;50.958;13.080;2022-07-29T08:10:23;13.68;;;6.40;;
20314;SDS011;10315;50.958;13.080;2022-07-29T08:20:52;11.20;;;5.38;;
20314;SDS011;10315;50.958;13.080;2022-07-29T08:31:02;12.95;;;4.05;;
20314;SDS011;10315;50.958;13.080;2022-07-29T08:41:06;12.65;;;3.92;;
20314;SDS011;10315;50.958;13.080;2022-07-29T08:51:18;8.82;;;3.72;;
20314;SDS011;10315;50.958;13.080;2022-07-29T09:01:33;11.43;;;3.30;;
20314;SDS011;10315;50.958;13.080;2022-07-29T09:11:38;12.02;;;4.13;;
20314;SDS011;10315;50.958;13.080;2022-07-29T09:21:47;11.80;;;3.80;;
20314;SDS011;10315;50.958;13.080;2022-07-29T09:31:58;6.55;;;4.10;;
20314;SDS011;10315;50.958;13.080;2022-07-29T09:42:41;7.03;;;3.83;;
20314;SDS011;10315;50.958;13.080;2022-07-29T09:52:47;6.28;;;3.42;;
20314;SDS011;10315;50.958;13.080;2022-07-29T10:02:55;4.20;;;2.78;;
20314;SDS011;10315;50.958;13.080;2022-07-29T10:13:16;6.68;;;3.53;;
20314;SDS011;10315;50.958;13.080;2022-07-29T10:23:46;4.63;;;2.80;;
20314;SDS011;10315;50.958;13.080;2022-07-29T10:33:59;7.30;;;2.70;;
20314;SDS011;10315;50.958;13.080;2022-07-29T10:44:25;7.00;;;2.83;;
20314;SDS011;10315;50.958;13.080;2022-07-29T10:54:41;4.13;;;3.20;;
20314;SDS011;10315;50.958;13.080;2022-07-29T11:05:11;3.90;;;2.85;;
20314;SDS011;10315;50.958;13.080;2022-07-29T11:15:29;2.58;;;2.30;;
20314;SDS011;10315;50.958;13.080;2022-07-29T11:26:17;4.18;;;2.90;;
20314;SDS011;10315;50.958;13.080;2022-07-29T11:36:31;3.20;;;2.40;;
20314;SDS011;10315;50.958;13.080;2022-07-29T11:47:20;6.38;;;2.75;;
20314;SDS011;10315;50.958;13.080;2022-07-29T11:57:29;4.78;;;2.47;;
20314;SDS011;10315;50.958;13.080;2022-07-29T12:07:34;4.25;;;2.90;;
20314;SDS011;10315;50.958;13.080;2022-07-29T12:18:28;6.65;;;2.67;;
20314;SDS011;10315;50.958;13.080;2022-07-29T12:28:28;3.10;;;2.80;;
20314;SDS011;10315;50.958;13.080;2022-07-29T12:38:37;4.90;;;2.53;;
20314;SDS011;10315;50.958;13.080;2022-07-29T12:48:51;3.63;;;2.55;;
20314;SDS011;10315;50.958;13.080;2022-07-29T13:09:35;7.13;;;2.50;;
20314;SDS011;10315;50.958;13.080;2022-07-29T13:19:42;5.75;;;2.53;;
20314;SDS011;10315;50.958;13.080;2022-07-29T13:30:08;3.55;;;2.45;;
20314;SDS011;10315;50.958;13.080;2022-07-29T13:40:25;3.95;;;2.97;;
20314;SDS011;10315;50.958;13.080;2022-07-29T13:50:36;3.00;;;2.60;;
20314;SDS011;10315;50.958;13.080;2022-07-29T14:00:51;3.42;;;2.63;;
20314;SDS011;10315;50.958;13.080;2022-07-29T14:11:23;4.57;;;2.80;;
20314;SDS011;10315;50.958;13.080;2022-07-29T14:21:43;5.90;;;2.47;;
20314;SDS011;10315;50.958;13.080;2022-07-29T14:31:55;8.50;;;2.75;;
20314;SDS011;10315;50.958;13.080;2022-07-29T14:42:10;10.57;;;2.95;;
20314;SDS011;10315;50.958;13.080;2022-07-29T15:02:37;3.03;;;2.72;;
20314;SDS011;10315;50.958;13.080;2022-07-29T15:23:21;3.72;;;3.13;;
20314;SDS011;10315;50.958;13.080;2022-07-29T15:33:39;8.38;;;3.80;;
20314;SDS011;10315;50.958;13.080;2022-07-29T15:43:48;6.68;;;4.43;;
20314;SDS011;10315;50.958;13.080;2022-07-29T15:54:18;7.95;;;4.90;;
20314;SDS011;10315;50.958;13.080;2022-07-29T16:04:28;5.47;;;4.25;;
20314;SDS011;10315;50.958;13.080;2022-07-29T16:14:35;7.07;;;4.38;;
20314;SDS011;10315;50.958;13.080;2022-07-29T16:24:40;7.93;;;3.80;;
20314;SDS011;10315;50.958;13.080;2022-07-29T16:35:01;6.75;;;4.72;;
20314;SDS011;10315;50.958;13.080;2022-07-29T16:45:18;5.78;;;4.97;;
20314;SDS011;10315;50.958;13.080;2022-07-29T16:55:31;7.00;;;4.90;;
20314;SDS011;10315;50.958;13.080;2022-07-29T17:05:36;6.57;;;4.65;;
20314;SDS011;10315;50.958;13.080;2022-07-29T17:15:54;6.53;;;4.82;;
20314;SDS011;10315;50.958;13.080;2022-07-29T17:26:02;5.25;;;4.07;;
20314;SDS011;10315;50.958;13.080;2022-07-29T17:36:13;3.67;;;3.03;;
20314;SDS011;10315;50.958;13.080;2022-07-29T17:46:29;3.60;;;3.17;;
20314;SDS011;10315;50.958;13.080;2022-07-29T17:56:43;4.50;;;3.60;;
20314;SDS011;10315;50.958;13.080;2022-07-29T18:06:52;5.18;;;3.85;;
20314;SDS011;10315;50.958;13.080;2022-07-29T18:17:04;4.32;;;3.92;;
20314;SDS011;10315;50.958;13.080;2022-07-29T18:27:16;5.15;;;3.67;;
20314;SDS011;10315;50.958;13.080;2022-07-29T18:37:27;5.72;;;3.95;;
20314;SDS011;10315;50.958;13.080;2022-07-29T18:47:33;5.53;;;3.67;;
20314;SDS011;10315;50.958;13.080;2022-07-29T18:57:41;4.43;;;3.67;;
20314;SDS011;10315;50.958;13.080;2022-07-29T19:07:47;7.00;;;4.35;;
20314;SDS011;10315;50.958;13.080;2022-07-29T19:17:54;12.38;;;4.60;;
20314;SDS011;10315;50.958;13.080;2022-07-29T19:28:02;11.77;;;4.30;;
20314;SDS011;10315;50.958;13.080;2022-07-29T19:38:08;8.43;;;5.00;;
20314;SDS011;10315;50.958;13.080;2022-07-29T19:48:30;6.20;;;4.38;;
20314;SDS011;10315;50.958;13.080;2022-07-29T19:58:39;6.60;;;4.50;;
20314;SDS011;10315;50.958;13.080;2022-07-29T20:08:43;5.05;;;4.00;;
20314;SDS011;10315;50.958;13.080;2022-07-29T20:19:09;11.75;;;4.25;;
20314;SDS011;10315;50.958;13.080;2022-07-29T20:29:16;6.22;;;5.20;;
20314;SDS011;10315;50.958;13.080;2022-07-29T20:39:23;5.40;;;4.78;;
20314;SDS011;10315;50.958;13.080;2022-07-29T20:49:28;9.82;;;4.95;;
20314;SDS011;10315;50.958;13.080;2022-07-29T20:59:43;8.70;;;5.35;;
20314;SDS011;10315;50.958;13.080;2022-07-29T21:10:08;9.50;;;5.20;;
20314;SDS011;10315;50.958;13.080;2022-07-29T21:20:36;25.75;;;8.50;;
20314;SDS011;10315;50.958;13.080;2022-07-29T21:30:45;53.35;;;12.90;;
20314;SDS011;10315;50.958;13.080;2022-07-29T21:40:57;29.42;;;14.25;;
20314;SDS011;10315;50.958;13.080;2022-07-29T21:51:08;16.00;;;8.55;;
20314;SDS011;10315;50.958;13.080;2022-07-29T22:01:29;10.00;;;8.10;;
20314;SDS011;10315;50.958;13.080;2022-07-29T22:11:36;13.88;;;10.20;;
20314;SDS011;10315;50.958;13.080;2022-07-29T22:21:52;17.08;;;11.82;;
20314;SDS011;10315;50.958;13.080;2022-07-29T22:32:25;21.58;;;14.20;;
20314;SDS011;10315;50.958;13.080;2022-07-29T22:43:20;18.90;;;13.90;;
20314;SDS011;10315;50.958;13.080;2022-07-29T22:53:41;23.47;;;14.87;;
20314;SDS011;10315;50.958;13.080;2022-07-29T23:04:04;21.48;;;14.00;;
20314;SDS011;10315;50.958;13.080;2022-07-29T23:14:13;18.90;;;10.88;;
20314;SDS011;10315;50.958;13.080;2022-07-29T23:24:25;15.07;;;10.03;;
20314;SDS011;10315;50.958;13.080;2022-07-29T23:34:33;14.02;;;10.30;;
20314;SDS011;10315;50.958;13.080;2022-07-29T23:44:46;14.27;;;10.25;;
20314;SDS011;10315;50.958;13.080;2022-07-29T23:54:57;13.30;;;9.60;;
